sensor_id;sensor_type;location;lat;lon;timestamp;P1;durP1;ratioP1;P2;durP2;ratioP2
39958;SDS011;25639;53.634;9.880;2023-06-14T00:02:03;7.13;;;3.28;;
39958;SDS011;25639;53.634;9.880;2023-06-14T00:04:29;8.05;;;3.50;;
39958;SDS011;25639;53.634;9.880;2023-06-14T00:06:55;6.38;;;3.42;;
39958;SDS011;25639;53.634;9.880;2023-06-14T00:09:21;7.88;;;3.30;;
39958;SDS011;25639;53.634;9.880;2023-06-14T00:11:47;7.97;;;3.42;;
39958;SDS011;25639;53.634;9.880;2023-06-14T00:14:12;8.32;;;3.63;;
39958;SDS011;25639;53.634;9.880;2023-06-14T00:16:38;7.30;;;3.47;;
39958;SDS011;25639;53.634;9.880;2023-06-14T00:19:07;10.25;;;3.30;;
39958;SDS011;25639;53.634;9.880;2023-06-14T00:21:33;7.63;;;3.08;;
39958;SDS011;25639;53.634;9.880;2023-06-14T00:24:00;7.10;;;2.95;;
39958;SDS011;25639;53.634;9.880;2023-06-14T00:26:26;8.13;;;2.90;;
39958;SDS011;25639;53.634;9.880;2023-06-14T00:28:52;8.00;;;3.58;;
39958;SDS011;25639;53.634;9.880;2023-06-14T00:31:17;7.97;;;3.50;;
39958;SDS011;25639;53.634;9.880;2023-06-14T00:33:43;11.13;;;3.88;;
39958;SDS011;25639;53.634;9.880;2023-06-14T00:36:08;9.30;;;3.60;;
39958;SDS011;25639;53.634;9.880;2023-06-14T00:38:33;5.45;;;3.25;;
39958;SDS011;25639;53.634;9.880;2023-06-14T00:40:58;6.90;;;3.35;;
39958;SDS011;25639;53.634;9.880;2023-06-14T00:43:24;11.80;;;3.90;;
39958;SDS011;25639;53.634;9.880;2023-06-14T00:45:50;11.48;;;3.60;;
39958;SDS011;25639;53.634;9.880;2023-06-14T00:48:16;6.63;;;3.40;;
39958;SDS011;25639;53.634;9.880;2023-06-14T00:50:42;8.75;;;3.63;;
39958;SDS011;25639;53.634;9.880;2023-06-14T00:53:10;10.23;;;3.75;;
39958;SDS011;25639;53.634;9.880;2023-06-14T00:55:37;8.90;;;3.35;;
39958;SDS011;25639;53.634;9.880;2023-06-14T00:58:02;7.10;;;3.38;;
39958;SDS011;25639;53.634;9.880;2023-06-14T01:00:28;10.95;;;3.70;;
39958;SDS011;25639;53.634;9.880;2023-06-14T01:02:53;7.95;;;3.25;;
39958;SDS011;25639;53.634;9.880;2023-06-14T01:05:19;9.45;;;3.58;;
39958;SDS011;25639;53.634;9.880;2023-06-14T01:10:59;6.85;;;3.40;;
39958;SDS011;25639;53.634;9.880;2023-06-14T01:13:33;11.02;;;3.38;;
39958;SDS011;25639;53.634;9.880;2023-06-14T01:16:01;5.90;;;3.42;;
39958;SDS011;25639;53.634;9.880;2023-06-14T01:18:30;6.60;;;3.38;;
39958;SDS011;25639;53.634;9.880;2023-06-14T01:20:57;8.07;;;3.22;;
39958;SDS011;25639;53.634;9.880;2023-06-14T01:23:23;10.60;;;3.40;;
39958;SDS011;25639;53.634;9.880;2023-06-14T01:25:49;6.93;;;3.63;;
39958;SDS011;25639;53.634;9.880;2023-06-14T01:28:17;9.00;;;3.60;;
39958;SDS011;25639;53.634;9.880;2023-06-14T01:30:45;8.68;;;3.70;;
39958;SDS011;25639;53.634;9.880;2023-06-14T01:33:18;7.72;;;3.47;;
39958;SDS011;25639;53.634;9.880;2023-06-14T01:35:46;6.90;;;3.50;;
39958;SDS011;25639;53.634;9.880;2023-06-14T01:38:13;8.40;;;4.22;;
39958;SDS011;25639;53.634;9.880;2023-06-14T01:40:40;7.50;;;3.28;;
39958;SDS011;25639;53.634;9.880;2023-06-14T01:43:08;7.50;;;4.18;;
39958;SDS011;25639;53.634;9.880;2023-06-14T01:45:36;11.18;;;4.32;;
39958;SDS011;25639;53.634;9.880;2023-06-14T01:48:02;6.88;;;3.63;;
39958;SDS011;25639;53.634;9.880;2023-06-14T01:50:29;7.05;;;3.65;;
39958;SDS011;25639;53.634;9.880;2023-06-14T01:52:55;8.40;;;4.22;;
39958;SDS011;25639;53.634;9.880;2023-06-14T01:55:20;8.95;;;3.45;;
39958;SDS011;25639;53.634;9.880;2023-06-14T01:57:46;8.80;;;4.32;;
39958;SDS011;25639;53.634;9.880;2023-06-14T02:00:12;8.13;;;3.40;;
39958;SDS011;25639;53.634;9.880;2023-06-14T02:02:38;8.10;;;4.00;;
39958;SDS011;25639;53.634;9.880;2023-06-14T02:05:04;10.60;;;3.80;;
39958;SDS011;25639;53.634;9.880;2023-06-14T02:07:29;9.93;;;3.45;;
39958;SDS011;25639;53.634;9.880;2023-06-14T02:09:55;8.30;;;4.03;;
39958;SDS011;25639;53.634;9.880;2023-06-14T02:12:20;7.60;;;4.10;;
39958;SDS011;25639;53.634;9.880;2023-06-14T02:14:45;8.68;;;3.88;;
39958;SDS011;25639;53.634;9.880;2023-06-14T02:17:10;11.18;;;4.28;;
39958;SDS011;25639;53.634;9.880;2023-06-14T02:19:36;8.70;;;4.10;;
39958;SDS011;25639;53.634;9.880;2023-06-14T02:22:02;7.78;;;3.72;;
39958;SDS011;25639;53.634;9.880;2023-06-14T02:24:27;7.78;;;4.03;;
39958;SDS011;25639;53.634;9.880;2023-06-14T02:26:52;6.00;;;3.83;;
39958;SDS011;25639;53.634;9.880;2023-06-14T02:29:17;8.02;;;3.85;;
39958;SDS011;25639;53.634;9.880;2023-06-14T02:31:43;6.20;;;3.72;;
39958;SDS011;25639;53.634;9.880;2023-06-14T02:34:08;8.63;;;3.92;;
39958;SDS011;25639;53.634;9.880;2023-06-14T02:36:34;7.22;;;4.03;;
39958;SDS011;25639;53.634;9.880;2023-06-14T02:38:59;6.32;;;3.83;;
39958;SDS011;25639;53.634;9.880;2023-06-14T02:41:25;9.27;;;4.53;;
39958;SDS011;25639;53.634;9.880;2023-06-14T02:43:51;7.20;;;3.55;;
39958;SDS011;25639;53.634;9.880;2023-06-14T02:46:16;7.40;;;4.22;;
39958;SDS011;25639;53.634;9.880;2023-06-14T02:48:42;11.73;;;4.45;;
39958;SDS011;25639;53.634;9.880;2023-06-14T02:51:08;7.65;;;4.00;;
39958;SDS011;25639;53.634;9.880;2023-06-14T02:53:34;7.35;;;3.97;;
39958;SDS011;25639;53.634;9.880;2023-06-14T02:56:00;7.28;;;4.10;;
39958;SDS011;25639;53.634;9.880;2023-06-14T02:58:26;7.95;;;4.50;;
39958;SDS011;25639;53.634;9.880;2023-06-14T03:00:51;8.68;;;4.45;;
39958;SDS011;25639;53.634;9.880;2023-06-14T03:03:18;7.00;;;4.05;;
39958;SDS011;25639;53.634;9.880;2023-06-14T03:05:45;8.02;;;3.88;;
39958;SDS011;25639;53.634;9.880;2023-06-14T03:08:12;7.35;;;3.90;;
39958;SDS011;25639;53.634;9.880;2023-06-14T03:10:48;8.93;;;4.35;;
39958;SDS011;25639;53.634;9.880;2023-06-14T03:13:14;6.90;;;4.32;;
39958;SDS011;25639;53.634;9.880;2023-06-14T03:15:46;8.82;;;4.32;;
39958;SDS011;25639;53.634;9.880;2023-06-14T03:18:11;10.95;;;4.53;;
39958;SDS011;25639;53.634;9.880;2023-06-14T03:20:40;9.18;;;4.47;;
39958;SDS011;25639;53.634;9.880;2023-06-14T03:23:06;15.02;;;4.88;;
39958;SDS011;25639;53.634;9.880;2023-06-14T03:25:31;11.80;;;5.57;;
39958;SDS011;25639;53.634;9.880;2023-06-14T03:27:59;10.32;;;5.03;;
39958;SDS011;25639;53.634;9.880;2023-06-14T03:30:24;7.72;;;4.25;;
39958;SDS011;25639;53.634;9.880;2023-06-14T03:32:49;14.07;;;5.00;;
39958;SDS011;25639;53.634;9.880;2023-06-14T03:35:17;8.55;;;4.45;;
39958;SDS011;25639;53.634;9.880;2023-06-14T03:37:44;8.52;;;4.22;;
39958;SDS011;25639;53.634;9.880;2023-06-14T03:40:11;10.68;;;5.20;;
39958;SDS011;25639;53.634;9.880;2023-06-14T03:42:37;10.27;;;4.65;;
39958;SDS011;25639;53.634;9.880;2023-06-14T03:45:03;8.25;;;4.22;;
39958;SDS011;25639;53.634;9.880;2023-06-14T03:47:29;7.40;;;4.57;;
39958;SDS011;25639;53.634;9.880;2023-06-14T03:49:54;8.18;;;4.72;;
39958;SDS011;25639;53.634;9.880;2023-06-14T03:52:20;9.30;;;4.82;;
39958;SDS011;25639;53.634;9.880;2023-06-14T03:54:47;9.57;;;4.60;;
39958;SDS011;25639;53.634;9.880;2023-06-14T03:57:12;9.82;;;4.45;;
39958;SDS011;25639;53.634;9.880;2023-06-14T03:59:38;8.90;;;4.43;;
39958;SDS011;25639;53.634;9.880;2023-06-14T04:02:03;9.50;;;5.22;;
39958;SDS011;25639;53.634;9.880;2023-06-14T04:04:28;8.95;;;4.20;;
39958;SDS011;25639;53.634;9.880;2023-06-14T04:06:54;10.65;;;4.78;;
39958;SDS011;25639;53.634;9.880;2023-06-14T04:09:23;12.30;;;4.53;;
39958;SDS011;25639;53.634;9.880;2023-06-14T04:11:50;9.80;;;4.65;;
39958;SDS011;25639;53.634;9.880;2023-06-14T04:14:16;10.55;;;4.70;;
39958;SDS011;25639;53.634;9.880;2023-06-14T04:16:42;7.15;;;4.00;;
39958;SDS011;25639;53.634;9.880;2023-06-14T04:19:07;20.95;;;5.03;;
39958;SDS011;25639;53.634;9.880;2023-06-14T04:21:32;10.48;;;4.05;;
39958;SDS011;25639;53.634;9.880;2023-06-14T04:23:59;11.93;;;4.32;;
39958;SDS011;25639;53.634;9.880;2023-06-14T04:26:27;7.10;;;3.90;;
39958;SDS011;25639;53.634;9.880;2023-06-14T04:28:59;12.15;;;4.40;;
39958;SDS011;25639;53.634;9.880;2023-06-14T04:31:30;8.60;;;3.90;;
39958;SDS011;25639;53.634;9.880;2023-06-14T04:33:58;6.57;;;3.72;;
39958;SDS011;25639;53.634;9.880;2023-06-14T04:36:24;8.35;;;3.95;;
39958;SDS011;25639;53.634;9.880;2023-06-14T04:38:51;5.72;;;3.40;;
39958;SDS011;25639;53.634;9.880;2023-06-14T04:41:19;11.43;;;3.88;;
39958;SDS011;25639;53.634;9.880;2023-06-14T04:43:47;10.07;;;3.88;;
39958;SDS011;25639;53.634;9.880;2023-06-14T04:46:13;8.63;;;3.97;;
39958;SDS011;25639;53.634;9.880;2023-06-14T04:48:39;9.70;;;3.80;;
39958;SDS011;25639;53.634;9.880;2023-06-14T04:51:07;9.73;;;4.25;;
39958;SDS011;25639;53.634;9.880;2023-06-14T04:53:33;7.78;;;4.03;;
39958;SDS011;25639;53.634;9.880;2023-06-14T04:55:59;10.63;;;3.97;;
39958;SDS011;25639;53.634;9.880;2023-06-14T04:58:25;13.85;;;4.20;;
39958;SDS011;25639;53.634;9.880;2023-06-14T05:00:51;6.72;;;3.50;;
39958;SDS011;25639;53.634;9.880;2023-06-14T05:03:16;7.40;;;3.30;;
39958;SDS011;25639;53.634;9.880;2023-06-14T05:05:43;7.13;;;3.65;;
39958;SDS011;25639;53.634;9.880;2023-06-14T05:08:08;9.32;;;3.90;;
39958;SDS011;25639;53.634;9.880;2023-06-14T05:10:34;9.30;;;3.67;;
39958;SDS011;25639;53.634;9.880;2023-06-14T05:13:01;7.68;;;3.65;;
39958;SDS011;25639;53.634;9.880;2023-06-14T05:15:26;7.13;;;3.55;;
39958;SDS011;25639;53.634;9.880;2023-06-14T05:17:52;7.05;;;3.58;;
39958;SDS011;25639;53.634;9.880;2023-06-14T05:20:20;8.23;;;3.85;;
39958;SDS011;25639;53.634;9.880;2023-06-14T05:22:49;5.25;;;3.28;;
39958;SDS011;25639;53.634;9.880;2023-06-14T05:25:17;9.80;;;3.80;;
39958;SDS011;25639;53.634;9.880;2023-06-14T05:27:42;8.20;;;3.45;;
39958;SDS011;25639;53.634;9.880;2023-06-14T05:30:08;7.35;;;3.63;;
39958;SDS011;25639;53.634;9.880;2023-06-14T05:32:33;7.88;;;3.58;;
39958;SDS011;25639;53.634;9.880;2023-06-14T05:34:59;7.90;;;3.20;;
39958;SDS011;25639;53.634;9.880;2023-06-14T05:37:24;11.32;;;3.28;;
39958;SDS011;25639;53.634;9.880;2023-06-14T05:39:49;7.93;;;3.88;;
39958;SDS011;25639;53.634;9.880;2023-06-14T05:42:15;6.60;;;3.10;;
39958;SDS011;25639;53.634;9.880;2023-06-14T05:44:40;11.40;;;3.90;;
39958;SDS011;25639;53.634;9.880;2023-06-14T05:47:05;6.70;;;3.45;;
39958;SDS011;25639;53.634;9.880;2023-06-14T05:49:31;9.73;;;3.85;;
39958;SDS011;25639;53.634;9.880;2023-06-14T05:51:56;6.82;;;3.35;;
39958;SDS011;25639;53.634;9.880;2023-06-14T05:54:21;10.93;;;3.60;;
39958;SDS011;25639;53.634;9.880;2023-06-14T05:56:47;8.57;;;3.53;;
39958;SDS011;25639;53.634;9.880;2023-06-14T05:59:12;6.95;;;3.33;;
39958;SDS011;25639;53.634;9.880;2023-06-14T06:01:37;10.00;;;3.40;;
39958;SDS011;25639;53.634;9.880;2023-06-14T06:04:05;5.63;;;3.08;;
39958;SDS011;25639;53.634;9.880;2023-06-14T06:06:30;9.45;;;3.60;;
39958;SDS011;25639;53.634;9.880;2023-06-14T06:08:55;8.52;;;3.33;;
39958;SDS011;25639;53.634;9.880;2023-06-14T06:11:21;8.07;;;3.13;;
39958;SDS011;25639;53.634;9.880;2023-06-14T06:13:46;8.98;;;3.13;;
39958;SDS011;25639;53.634;9.880;2023-06-14T06:16:11;5.80;;;3.20;;
39958;SDS011;25639;53.634;9.880;2023-06-14T06:18:36;8.38;;;3.17;;
39958;SDS011;25639;53.634;9.880;2023-06-14T06:21:03;7.00;;;3.70;;
39958;SDS011;25639;53.634;9.880;2023-06-14T06:23:28;7.00;;;3.47;;
39958;SDS011;25639;53.634;9.880;2023-06-14T06:25:54;8.50;;;3.60;;
39958;SDS011;25639;53.634;9.880;2023-06-14T06:28:19;9.63;;;3.30;;
39958;SDS011;25639;53.634;9.880;2023-06-14T06:30:45;7.32;;;2.85;;
39958;SDS011;25639;53.634;9.880;2023-06-14T06:33:10;6.32;;;2.80;;
39958;SDS011;25639;53.634;9.880;2023-06-14T06:35:36;7.38;;;2.90;;
39958;SDS011;25639;53.634;9.880;2023-06-14T06:38:02;6.00;;;2.83;;
39958;SDS011;25639;53.634;9.880;2023-06-14T06:40:27;6.00;;;2.60;;
39958;SDS011;25639;53.634;9.880;2023-06-14T06:42:53;8.55;;;2.67;;
39958;SDS011;25639;53.634;9.880;2023-06-14T06:45:19;7.57;;;3.20;;
39958;SDS011;25639;53.634;9.880;2023-06-14T06:47:44;7.43;;;2.97;;
39958;SDS011;25639;53.634;9.880;2023-06-14T06:50:10;10.60;;;3.30;;
39958;SDS011;25639;53.634;9.880;2023-06-14T06:52:35;6.70;;;3.00;;
39958;SDS011;25639;53.634;9.880;2023-06-14T06:55:01;10.90;;;2.70;;
39958;SDS011;25639;53.634;9.880;2023-06-14T06:57:28;5.63;;;2.75;;
39958;SDS011;25639;53.634;9.880;2023-06-14T06:59:54;8.77;;;2.90;;
39958;SDS011;25639;53.634;9.880;2023-06-14T07:02:19;5.00;;;2.65;;
39958;SDS011;25639;53.634;9.880;2023-06-14T07:04:45;5.85;;;2.47;;
39958;SDS011;25639;53.634;9.880;2023-06-14T07:07:10;4.65;;;2.65;;
39958;SDS011;25639;53.634;9.880;2023-06-14T07:09:35;5.47;;;2.83;;
39958;SDS011;25639;53.634;9.880;2023-06-14T07:12:01;6.22;;;2.80;;
39958;SDS011;25639;53.634;9.880;2023-06-14T07:14:26;6.55;;;2.65;;
39958;SDS011;25639;53.634;9.880;2023-06-14T07:16:51;3.97;;;2.78;;
39958;SDS011;25639;53.634;9.880;2023-06-14T07:19:17;5.60;;;2.60;;
39958;SDS011;25639;53.634;9.880;2023-06-14T07:21:42;4.85;;;2.40;;
39958;SDS011;25639;53.634;9.880;2023-06-14T07:24:08;4.22;;;2.10;;
39958;SDS011;25639;53.634;9.880;2023-06-14T07:26:33;4.78;;;2.53;;
39958;SDS011;25639;53.634;9.880;2023-06-14T07:28:59;6.65;;;2.80;;
39958;SDS011;25639;53.634;9.880;2023-06-14T07:31:25;6.35;;;2.42;;
39958;SDS011;25639;53.634;9.880;2023-06-14T07:33:51;7.00;;;2.40;;
39958;SDS011;25639;53.634;9.880;2023-06-14T07:36:17;6.95;;;2.13;;
39958;SDS011;25639;53.634;9.880;2023-06-14T07:38:42;7.32;;;2.65;;
39958;SDS011;25639;53.634;9.880;2023-06-14T07:41:08;6.90;;;2.53;;
39958;SDS011;25639;53.634;9.880;2023-06-14T07:43:33;4.47;;;2.33;;
39958;SDS011;25639;53.634;9.880;2023-06-14T07:45:59;11.23;;;2.38;;
39958;SDS011;25639;53.634;9.880;2023-06-14T07:48:25;4.15;;;2.30;;
39958;SDS011;25639;53.634;9.880;2023-06-14T07:50:50;4.75;;;2.40;;
39958;SDS011;25639;53.634;9.880;2023-06-14T07:53:15;3.83;;;2.50;;
39958;SDS011;25639;53.634;9.880;2023-06-14T07:55:41;25.55;;;3.08;;
39958;SDS011;25639;53.634;9.880;2023-06-14T07:58:08;9.48;;;2.83;;
39958;SDS011;25639;53.634;9.880;2023-06-14T08:00:33;5.18;;;2.20;;
39958;SDS011;25639;53.634;9.880;2023-06-14T08:02:59;7.00;;;2.63;;
39958;SDS011;25639;53.634;9.880;2023-06-14T08:05:28;7.78;;;2.47;;
39958;SDS011;25639;53.634;9.880;2023-06-14T08:07:54;3.50;;;2.00;;
39958;SDS011;25639;53.634;9.880;2023-06-14T08:10:20;6.07;;;2.13;;
39958;SDS011;25639;53.634;9.880;2023-06-14T08:12:45;5.90;;;2.00;;
39958;SDS011;25639;53.634;9.880;2023-06-14T08:15:11;5.72;;;2.20;;
39958;SDS011;25639;53.634;9.880;2023-06-14T08:17:36;4.75;;;2.00;;
39958;SDS011;25639;53.634;9.880;2023-06-14T08:20:02;7.25;;;2.72;;
39958;SDS011;25639;53.634;9.880;2023-06-14T08:22:31;4.75;;;2.50;;
39958;SDS011;25639;53.634;9.880;2023-06-14T08:24:59;9.07;;;3.28;;
39958;SDS011;25639;53.634;9.880;2023-06-14T08:27:27;4.50;;;2.00;;
39958;SDS011;25639;53.634;9.880;2023-06-14T08:29:52;4.25;;;2.33;;
39958;SDS011;25639;53.634;9.880;2023-06-14T08:32:18;8.63;;;3.00;;
39958;SDS011;25639;53.634;9.880;2023-06-14T08:34:43;7.25;;;2.28;;
39958;SDS011;25639;53.634;9.880;2023-06-14T08:37:08;5.93;;;2.35;;
39958;SDS011;25639;53.634;9.880;2023-06-14T08:39:34;9.32;;;2.38;;
39958;SDS011;25639;53.634;9.880;2023-06-14T08:41:59;4.82;;;2.63;;
39958;SDS011;25639;53.634;9.880;2023-06-14T08:44:27;11.05;;;2.78;;
39958;SDS011;25639;53.634;9.880;2023-06-14T08:46:53;6.22;;;2.75;;
39958;SDS011;25639;53.634;9.880;2023-06-14T08:49:22;7.15;;;2.53;;
39958;SDS011;25639;53.634;9.880;2023-06-14T08:51:48;7.35;;;2.30;;
39958;SDS011;25639;53.634;9.880;2023-06-14T08:54:18;5.78;;;2.70;;
39958;SDS011;25639;53.634;9.880;2023-06-14T08:56:45;8.10;;;2.70;;
39958;SDS011;25639;53.634;9.880;2023-06-14T08:59:13;4.57;;;2.35;;
39958;SDS011;25639;53.634;9.880;2023-06-14T09:01:38;12.80;;;3.00;;
39958;SDS011;25639;53.634;9.880;2023-06-14T09:04:04;4.05;;;2.65;;
39958;SDS011;25639;53.634;9.880;2023-06-14T09:06:30;5.78;;;2.75;;
39958;SDS011;25639;53.634;9.880;2023-06-14T09:08:56;5.90;;;2.60;;
39958;SDS011;25639;53.634;9.880;2023-06-14T09:11:22;4.22;;;2.78;;
39958;SDS011;25639;53.634;9.880;2023-06-14T09:13:48;8.75;;;2.45;;
39958;SDS011;25639;53.634;9.880;2023-06-14T09:16:14;3.80;;;2.40;;
39958;SDS011;25639;53.634;9.880;2023-06-14T09:18:40;5.45;;;2.80;;
39958;SDS011;25639;53.634;9.880;2023-06-14T09:21:13;5.22;;;2.60;;
39958;SDS011;25639;53.634;9.880;2023-06-14T09:23:40;11.02;;;3.42;;
39958;SDS011;25639;53.634;9.880;2023-06-14T09:26:10;12.68;;;2.97;;
39958;SDS011;25639;53.634;9.880;2023-06-14T09:28:40;6.07;;;2.58;;
39958;SDS011;25639;53.634;9.880;2023-06-14T09:31:07;8.02;;;2.78;;
39958;SDS011;25639;53.634;9.880;2023-06-14T09:33:33;10.25;;;2.58;;
39958;SDS011;25639;53.634;9.880;2023-06-14T09:35:59;5.20;;;2.75;;
39958;SDS011;25639;53.634;9.880;2023-06-14T09:38:24;7.68;;;2.83;;
39958;SDS011;25639;53.634;9.880;2023-06-14T09:40:50;6.20;;;2.65;;
39958;SDS011;25639;53.634;9.880;2023-06-14T09:43:15;5.03;;;2.85;;
39958;SDS011;25639;53.634;9.880;2023-06-14T09:45:43;5.55;;;3.13;;
39958;SDS011;25639;53.634;9.880;2023-06-14T09:48:11;7.00;;;2.80;;
39958;SDS011;25639;53.634;9.880;2023-06-14T09:50:37;9.98;;;2.97;;
39958;SDS011;25639;53.634;9.880;2023-06-14T09:53:03;9.63;;;2.63;;
39958;SDS011;25639;53.634;9.880;2023-06-14T09:55:31;13.48;;;3.33;;
39958;SDS011;25639;53.634;9.880;2023-06-14T09:58:02;4.30;;;2.60;;
39958;SDS011;25639;53.634;9.880;2023-06-14T10:00:30;4.82;;;2.35;;
39958;SDS011;25639;53.634;9.880;2023-06-14T10:02:59;6.13;;;2.67;;
39958;SDS011;25639;53.634;9.880;2023-06-14T10:05:28;5.72;;;3.10;;
39958;SDS011;25639;53.634;9.880;2023-06-14T10:08:04;8.85;;;2.95;;
39958;SDS011;25639;53.634;9.880;2023-06-14T10:10:32;8.52;;;3.08;;
39958;SDS011;25639;53.634;9.880;2023-06-14T10:12:58;8.93;;;2.95;;
39958;SDS011;25639;53.634;9.880;2023-06-14T10:15:28;5.03;;;2.58;;
39958;SDS011;25639;53.634;9.880;2023-06-14T10:18:01;5.63;;;2.70;;
39958;SDS011;25639;53.634;9.880;2023-06-14T10:23:23;5.38;;;2.42;;
39958;SDS011;25639;53.634;9.880;2023-06-14T10:25:56;8.85;;;2.30;;
39958;SDS011;25639;53.634;9.880;2023-06-14T10:28:22;5.63;;;3.15;;
39958;SDS011;25639;53.634;9.880;2023-06-14T10:31:02;4.07;;;2.83;;
39958;SDS011;25639;53.634;9.880;2023-06-14T10:33:48;10.43;;;3.17;;
39958;SDS011;25639;53.634;9.880;2023-06-14T10:41:37;4.97;;;2.75;;
39958;SDS011;25639;53.634;9.880;2023-06-14T10:46:38;6.90;;;2.55;;
39958;SDS011;25639;53.634;9.880;2023-06-14T10:52:07;8.25;;;2.60;;
39958;SDS011;25639;53.634;9.880;2023-06-14T10:55:00;6.22;;;2.45;;
39958;SDS011;25639;53.634;9.880;2023-06-14T10:57:37;8.40;;;2.97;;
39958;SDS011;25639;53.634;9.880;2023-06-14T11:00:04;4.13;;;2.80;;
39958;SDS011;25639;53.634;9.880;2023-06-14T11:05:25;7.93;;;2.83;;
39958;SDS011;25639;53.634;9.880;2023-06-14T11:10:55;4.30;;;2.60;;
39958;SDS011;25639;53.634;9.880;2023-06-14T11:13:24;4.15;;;2.20;;
39958;SDS011;25639;53.634;9.880;2023-06-14T11:15:51;13.18;;;3.05;;
39958;SDS011;25639;53.634;9.880;2023-06-14T11:18:18;10.73;;;3.17;;
39958;SDS011;25639;53.634;9.880;2023-06-14T11:20:45;6.70;;;2.70;;
39958;SDS011;25639;53.634;9.880;2023-06-14T11:23:11;10.85;;;3.00;;
39958;SDS011;25639;53.634;9.880;2023-06-14T11:25:36;6.30;;;2.97;;
39958;SDS011;25639;53.634;9.880;2023-06-14T11:28:01;8.82;;;2.63;;
39958;SDS011;25639;53.634;9.880;2023-06-14T11:30:27;7.13;;;2.65;;
39958;SDS011;25639;53.634;9.880;2023-06-14T11:32:52;14.30;;;3.50;;
39958;SDS011;25639;53.634;9.880;2023-06-14T11:35:21;4.07;;;2.50;;
39958;SDS011;25639;53.634;9.880;2023-06-14T11:37:54;7.88;;;3.20;;
39958;SDS011;25639;53.634;9.880;2023-06-14T11:40:23;6.93;;;2.63;;
39958;SDS011;25639;53.634;9.880;2023-06-14T11:42:58;4.80;;;2.42;;
39958;SDS011;25639;53.634;9.880;2023-06-14T11:45:27;6.95;;;2.92;;
39958;SDS011;25639;53.634;9.880;2023-06-14T11:47:54;13.52;;;2.70;;
39958;SDS011;25639;53.634;9.880;2023-06-14T11:50:21;8.90;;;2.65;;
39958;SDS011;25639;53.634;9.880;2023-06-14T11:52:52;3.35;;;2.22;;
39958;SDS011;25639;53.634;9.880;2023-06-14T11:55:18;5.80;;;2.90;;
39958;SDS011;25639;53.634;9.880;2023-06-14T11:57:46;10.98;;;2.97;;
39958;SDS011;25639;53.634;9.880;2023-06-14T12:00:11;5.32;;;2.38;;
39958;SDS011;25639;53.634;9.880;2023-06-14T12:02:37;7.72;;;2.65;;
39958;SDS011;25639;53.634;9.880;2023-06-14T12:05:04;4.45;;;2.65;;
39958;SDS011;25639;53.634;9.880;2023-06-14T12:07:32;4.57;;;2.60;;
39958;SDS011;25639;53.634;9.880;2023-06-14T12:12:24;4.40;;;2.40;;
39958;SDS011;25639;53.634;9.880;2023-06-14T12:14:53;8.95;;;2.20;;
39958;SDS011;25639;53.634;9.880;2023-06-14T12:17:21;7.30;;;2.80;;
39958;SDS011;25639;53.634;9.880;2023-06-14T12:19:46;8.23;;;2.47;;
39958;SDS011;25639;53.634;9.880;2023-06-14T12:22:15;4.85;;;2.95;;
39958;SDS011;25639;53.634;9.880;2023-06-14T12:24:44;4.45;;;2.55;;
39958;SDS011;25639;53.634;9.880;2023-06-14T12:27:10;5.30;;;2.45;;
39958;SDS011;25639;53.634;9.880;2023-06-14T12:29:40;7.10;;;2.90;;
39958;SDS011;25639;53.634;9.880;2023-06-14T12:32:08;6.25;;;2.55;;
39958;SDS011;25639;53.634;9.880;2023-06-14T12:34:34;5.88;;;2.90;;
39958;SDS011;25639;53.634;9.880;2023-06-14T12:36:59;5.43;;;2.40;;
39958;SDS011;25639;53.634;9.880;2023-06-14T12:39:24;6.00;;;2.50;;
39958;SDS011;25639;53.634;9.880;2023-06-14T12:41:50;9.43;;;2.63;;
39958;SDS011;25639;53.634;9.880;2023-06-14T12:44:15;10.13;;;2.65;;
39958;SDS011;25639;53.634;9.880;2023-06-14T12:46:43;5.25;;;2.75;;
39958;SDS011;25639;53.634;9.880;2023-06-14T12:49:09;5.55;;;2.50;;
39958;SDS011;25639;53.634;9.880;2023-06-14T12:51:36;14.02;;;3.13;;
39958;SDS011;25639;53.634;9.880;2023-06-14T12:54:02;10.80;;;2.50;;
39958;SDS011;25639;53.634;9.880;2023-06-14T12:56:28;4.63;;;2.70;;
39958;SDS011;25639;53.634;9.880;2023-06-14T12:58:53;5.30;;;2.40;;
39958;SDS011;25639;53.634;9.880;2023-06-14T13:01:19;6.55;;;2.55;;
39958;SDS011;25639;53.634;9.880;2023-06-14T13:03:45;4.88;;;2.30;;
39958;SDS011;25639;53.634;9.880;2023-06-14T13:06:15;6.85;;;2.75;;
39958;SDS011;25639;53.634;9.880;2023-06-14T13:08:41;5.40;;;2.40;;
39958;SDS011;25639;53.634;9.880;2023-06-14T13:11:06;8.60;;;2.90;;
39958;SDS011;25639;53.634;9.880;2023-06-14T13:13:31;6.40;;;2.67;;
39958;SDS011;25639;53.634;9.880;2023-06-14T13:15:56;6.57;;;2.83;;
39958;SDS011;25639;53.634;9.880;2023-06-14T13:18:22;8.38;;;3.20;;
39958;SDS011;25639;53.634;9.880;2023-06-14T13:20:47;7.43;;;2.75;;
39958;SDS011;25639;53.634;9.880;2023-06-14T13:23:12;4.93;;;2.95;;
39958;SDS011;25639;53.634;9.880;2023-06-14T13:25:38;4.15;;;2.60;;
39958;SDS011;25639;53.634;9.880;2023-06-14T13:28:04;7.50;;;3.10;;
39958;SDS011;25639;53.634;9.880;2023-06-14T13:30:30;7.18;;;2.53;;
39958;SDS011;25639;53.634;9.880;2023-06-14T13:32:56;6.82;;;3.00;;
39958;SDS011;25639;53.634;9.880;2023-06-14T13:35:22;7.95;;;2.67;;
39958;SDS011;25639;53.634;9.880;2023-06-14T13:37:48;7.03;;;2.72;;
39958;SDS011;25639;53.634;9.880;2023-06-14T13:40:14;5.43;;;2.95;;
39958;SDS011;25639;53.634;9.880;2023-06-14T13:42:39;5.28;;;2.63;;
39958;SDS011;25639;53.634;9.880;2023-06-14T13:45:05;7.78;;;2.70;;
39958;SDS011;25639;53.634;9.880;2023-06-14T13:47:31;6.63;;;2.70;;
39958;SDS011;25639;53.634;9.880;2023-06-14T13:49:57;5.68;;;2.55;;
39958;SDS011;25639;53.634;9.880;2023-06-14T13:52:23;7.75;;;2.63;;
39958;SDS011;25639;53.634;9.880;2023-06-14T13:54:48;10.23;;;2.67;;
39958;SDS011;25639;53.634;9.880;2023-06-14T13:57:14;9.52;;;2.80;;
39958;SDS011;25639;53.634;9.880;2023-06-14T13:59:40;11.93;;;2.95;;
39958;SDS011;25639;53.634;9.880;2023-06-14T14:02:06;7.95;;;2.67;;
39958;SDS011;25639;53.634;9.880;2023-06-14T14:04:32;5.00;;;2.70;;
39958;SDS011;25639;53.634;9.880;2023-06-14T14:06:59;4.95;;;2.75;;
39958;SDS011;25639;53.634;9.880;2023-06-14T14:09:25;10.07;;;2.60;;
39958;SDS011;25639;53.634;9.880;2023-06-14T14:11:50;7.13;;;2.63;;
39958;SDS011;25639;53.634;9.880;2023-06-14T14:14:15;7.05;;;2.70;;
39958;SDS011;25639;53.634;9.880;2023-06-14T14:16:40;6.07;;;2.67;;
39958;SDS011;25639;53.634;9.880;2023-06-14T14:19:06;13.32;;;2.75;;
39958;SDS011;25639;53.634;9.880;2023-06-14T14:21:32;5.82;;;2.35;;
39958;SDS011;25639;53.634;9.880;2023-06-14T14:23:57;4.85;;;2.40;;
39958;SDS011;25639;53.634;9.880;2023-06-14T14:26:23;5.75;;;2.88;;
39958;SDS011;25639;53.634;9.880;2023-06-14T14:28:49;8.23;;;2.63;;
39958;SDS011;25639;53.634;9.880;2023-06-14T14:31:14;6.55;;;2.80;;
39958;SDS011;25639;53.634;9.880;2023-06-14T14:33:40;4.97;;;2.38;;
39958;SDS011;25639;53.634;9.880;2023-06-14T14:36:05;4.68;;;2.70;;
39958;SDS011;25639;53.634;9.880;2023-06-14T14:38:31;9.13;;;2.50;;
39958;SDS011;25639;53.634;9.880;2023-06-14T14:40:57;5.82;;;2.20;;
39958;SDS011;25639;53.634;9.880;2023-06-14T14:43:22;6.03;;;2.63;;
39958;SDS011;25639;53.634;9.880;2023-06-14T14:45:47;4.45;;;2.13;;
39958;SDS011;25639;53.634;9.880;2023-06-14T14:48:13;4.50;;;2.33;;
39958;SDS011;25639;53.634;9.880;2023-06-14T14:50:38;5.32;;;2.53;;
39958;SDS011;25639;53.634;9.880;2023-06-14T14:53:04;6.15;;;2.30;;
39958;SDS011;25639;53.634;9.880;2023-06-14T14:55:30;6.63;;;2.47;;
39958;SDS011;25639;53.634;9.880;2023-06-14T14:57:57;6.30;;;2.58;;
39958;SDS011;25639;53.634;9.880;2023-06-14T15:00:22;5.00;;;2.83;;
39958;SDS011;25639;53.634;9.880;2023-06-14T15:02:48;3.42;;;2.38;;
39958;SDS011;25639;53.634;9.880;2023-06-14T15:05:13;14.60;;;2.50;;
39958;SDS011;25639;53.634;9.880;2023-06-14T15:07:38;11.38;;;2.65;;